sensor_id;sensor_type;location;lat;lon;timestamp;pressure;altitude;pressure_sealevel;temperature;humidity
18275;BME280;19470;49.322;7.218;2023-12-20T00:00:34;98814.22;;;9.85;92.20
18275;BME280;19470;49.322;7.218;2023-12-20T00:03:02;98810.53;;;9.98;91.27
18275;BME280;19470;49.322;7.218;2023-12-20T00:05:29;98821.72;;;9.88;92.40
18275;BME280;19470;49.322;7.218;2023-12-20T00:07:59;98810.31;;;9.88;92.61
18275;BME280;19470;49.322;7.218;2023-12-20T00:10:26;98812.25;;;9.92;91.27
18275;BME280;19470;49.322;7.218;2023-12-20T00:12:52;98815.41;;;9.07;96.75
18275;BME280;19470;49.322;7.218;2023-12-20T00:15:19;98807.91;;;9.86;93.15
18275;BME280;19470;49.322;7.218;2023-12-20T00:17:45;98807.78;;;9.93;90.65
18275;BME280;19470;49.322;7.218;2023-12-20T00:20:12;98814.53;;;10.12;90.61
18275;BME280;19470;49.322;7.218;2023-12-20T00:22:39;98805.59;;;9.78;93.68
18275;BME280;19470;49.322;7.218;2023-12-20T00:25:07;98815.47;;;9.94;90.96
18275;BME280;19470;49.322;7.218;2023-12-20T00:27:34;98812.06;;;9.70;96.45
18275;BME280;19470;49.322;7.218;2023-12-20T00:30:01;98817.59;;;9.45;96.68
18275;BME280;19470;49.322;7.218;2023-12-20T00:32:27;98810.31;;;9.88;94.62
18275;BME280;19470;49.322;7.218;2023-12-20T00:34:53;98808.03;;;10.20;91.83
18275;BME280;19470;49.322;7.218;2023-12-20T00:37:21;98809.41;;;9.82;93.57
18275;BME280;19470;49.322;7.218;2023-12-20T00:39:48;98809.69;;;9.57;94.86
18275;BME280;19470;49.322;7.218;2023-12-20T00:42:16;98792.59;;;10.57;88.62
18275;BME280;19470;49.322;7.218;2023-12-20T00:44:42;98796.00;;;10.86;86.30
18275;BME280;19470;49.322;7.218;2023-12-20T00:47:09;98790.81;;;10.46;88.00
18275;BME280;19470;49.322;7.218;2023-12-20T00:49:35;98793.81;;;10.09;91.51
18275;BME280;19470;49.322;7.218;2023-12-20T00:52:02;98790.06;;;10.34;90.58
18275;BME280;19470;49.322;7.218;2023-12-20T00:54:28;98787.00;;;10.13;91.59
18275;BME280;19470;49.322;7.218;2023-12-20T00:56:56;98786.41;;;10.23;90.60
18275;BME280;19470;49.322;7.218;2023-12-20T00:59:23;98776.66;;;10.69;87.86
18275;BME280;19470;49.322;7.218;2023-12-20T01:01:50;98787.47;;;10.67;86.25
18275;BME280;19470;49.322;7.218;2023-12-20T01:04:16;98793.22;;;9.67;94.76
18275;BME280;19470;49.322;7.218;2023-12-20T01:06:43;98791.63;;;9.54;98.56
18275;BME280;19470;49.322;7.218;2023-12-20T01:09:09;98787.81;;;9.62;96.39
18275;BME280;19470;49.322;7.218;2023-12-20T01:11:36;98787.94;;;9.67;92.99
18275;BME280;19470;49.322;7.218;2023-12-20T01:14:02;98779.13;;;10.59;89.61
18275;BME280;19470;49.322;7.218;2023-12-20T01:16:30;98776.75;;;10.17;91.87
18275;BME280;19470;49.322;7.218;2023-12-20T01:18:57;98771.31;;;9.95;93.91
18275;BME280;19470;49.322;7.218;2023-12-20T01:21:23;98766.59;;;10.26;90.81
18275;BME280;19470;49.322;7.218;2023-12-20T01:23:50;98771.78;;;10.32;90.50
18275;BME280;19470;49.322;7.218;2023-12-20T01:26:17;98770.91;;;10.43;90.86
18275;BME280;19470;49.322;7.218;2023-12-20T01:28:43;98774.94;;;10.06;91.36
18275;BME280;19470;49.322;7.218;2023-12-20T01:31:10;98774.75;;;9.95;93.41
18275;BME280;19470;49.322;7.218;2023-12-20T01:33:38;98788.22;;;9.94;94.53
18275;BME280;19470;49.322;7.218;2023-12-20T01:36:05;98789.59;;;10.37;92.79
18275;BME280;19470;49.322;7.218;2023-12-20T01:38:31;98778.91;;;10.32;92.35
18275;BME280;19470;49.322;7.218;2023-12-20T01:40:58;98768.56;;;10.18;91.81
18275;BME280;19470;49.322;7.218;2023-12-20T01:43:25;98777.22;;;10.71;88.93
18275;BME280;19470;49.322;7.218;2023-12-20T01:45:51;98775.19;;;10.95;88.16
18275;BME280;19470;49.322;7.218;2023-12-20T01:48:19;98764.94;;;10.65;88.49
18275;BME280;19470;49.322;7.218;2023-12-20T01:50:48;98792.47;;;10.81;88.68
18275;BME280;19470;49.322;7.218;2023-12-20T01:53:15;98800.59;;;10.45;91.66
18275;BME280;19470;49.322;7.218;2023-12-20T01:55:42;98788.81;;;10.24;93.95
18275;BME280;19470;49.322;7.218;2023-12-20T01:58:09;98790.50;;;10.02;94.94
18275;BME280;19470;49.322;7.218;2023-12-20T02:00:37;98780.34;;;10.39;92.80
18275;BME280;19470;49.322;7.218;2023-12-20T02:03:04;98792.25;;;10.54;90.78
18275;BME280;19470;49.322;7.218;2023-12-20T02:05:32;98795.25;;;10.57;91.48
18275;BME280;19470;49.322;7.218;2023-12-20T02:08:00;98786.94;;;10.37;92.22
18275;BME280;19470;49.322;7.218;2023-12-20T02:10:27;98784.03;;;10.84;90.30
18275;BME280;19470;49.322;7.218;2023-12-20T02:12:54;98792.59;;;10.57;91.54
18275;BME280;19470;49.322;7.218;2023-12-20T02:15:22;98771.44;;;10.91;89.42
18275;BME280;19470;49.322;7.218;2023-12-20T02:17:49;98784.34;;;9.85;96.98
18275;BME280;19470;49.322;7.218;2023-12-20T02:20:16;98785.31;;;10.64;92.93
18275;BME280;19470;49.322;7.218;2023-12-20T02:22:44;98791.53;;;10.58;92.53
18275;BME280;19470;49.322;7.218;2023-12-20T02:25:10;98770.78;;;10.10;95.74
18275;BME280;19470;49.322;7.218;2023-12-20T02:27:38;98792.22;;;10.08;97.47
18275;BME280;19470;49.322;7.218;2023-12-20T02:30:06;98788.53;;;10.38;93.40
18275;BME280;19470;49.322;7.218;2023-12-20T02:32:32;98775.59;;;10.87;91.91
18275;BME280;19470;49.322;7.218;2023-12-20T02:34:59;98772.47;;;10.90;90.63
18275;BME280;19470;49.322;7.218;2023-12-20T02:37:25;98779.94;;;10.59;93.31
18275;BME280;19470;49.322;7.218;2023-12-20T02:39:53;98774.72;;;10.98;90.54
18275;BME280;19470;49.322;7.218;2023-12-20T02:42:20;98778.34;;;10.75;91.38
18275;BME280;19470;49.322;7.218;2023-12-20T02:44:46;98778.25;;;10.87;92.37
18275;BME280;19470;49.322;7.218;2023-12-20T02:47:13;98784.91;;;10.72;92.63
18275;BME280;19470;49.322;7.218;2023-12-20T02:49:39;98795.78;;;10.42;93.08
18275;BME280;19470;49.322;7.218;2023-12-20T02:52:06;98793.66;;;10.56;91.39
18275;BME280;19470;49.322;7.218;2023-12-20T02:54:33;98801.22;;;10.36;95.86
18275;BME280;19470;49.322;7.218;2023-12-20T02:57:00;98801.00;;;10.83;92.01
18275;BME280;19470;49.322;7.218;2023-12-20T02:59:27;98799.44;;;10.87;91.88
18275;BME280;19470;49.322;7.218;2023-12-20T03:01:53;98798.16;;;10.89;92.28
18275;BME280;19470;49.322;7.218;2023-12-20T03:04:20;98803.53;;;10.94;90.57
18275;BME280;19470;49.322;7.218;2023-12-20T03:06:46;98793.44;;;11.08;90.78
18275;BME280;19470;49.322;7.218;2023-12-20T03:09:13;98789.75;;;10.92;92.08
18275;BME280;19470;49.322;7.218;2023-12-20T03:11:39;98782.50;;;11.21;90.83
18275;BME280;19470;49.322;7.218;2023-12-20T03:14:07;98797.09;;;11.41;87.59
18275;BME280;19470;49.322;7.218;2023-12-20T03:16:34;98803.84;;;11.15;91.91
18275;BME280;19470;49.322;7.218;2023-12-20T03:19:00;98803.28;;;10.62;95.71
18275;BME280;19470;49.322;7.218;2023-12-20T03:21:27;98802.72;;;11.44;89.52
18275;BME280;19470;49.322;7.218;2023-12-20T03:23:53;98806.16;;;11.45;89.48
18275;BME280;19470;49.322;7.218;2023-12-20T03:26:20;98800.94;;;11.33;90.23
18275;BME280;19470;49.322;7.218;2023-12-20T03:28:47;98810.03;;;10.70;94.97
18275;BME280;19470;49.322;7.218;2023-12-20T03:31:15;98812.84;;;10.80;94.64
18275;BME280;19470;49.322;7.218;2023-12-20T03:33:42;98806.34;;;10.54;97.27
18275;BME280;19470;49.322;7.218;2023-12-20T03:36:08;98817.53;;;10.73;97.00
18275;BME280;19470;49.322;7.218;2023-12-20T03:38:35;98817.28;;;10.74;97.28
18275;BME280;19470;49.322;7.218;2023-12-20T03:41:01;98818.19;;;10.97;93.93
18275;BME280;19470;49.322;7.218;2023-12-20T03:43:28;98818.31;;;10.73;98.26
18275;BME280;19470;49.322;7.218;2023-12-20T03:45:54;98820.25;;;11.29;92.55
18275;BME280;19470;49.322;7.218;2023-12-20T03:48:22;98825.41;;;11.57;89.14
18275;BME280;19470;49.322;7.218;2023-12-20T03:50:48;98818.31;;;11.24;92.71
18275;BME280;19470;49.322;7.218;2023-12-20T03:53:15;98823.13;;;11.44;90.63
18275;BME280;19470;49.322;7.218;2023-12-20T03:55:41;98829.63;;;10.86;93.93
18275;BME280;19470;49.322;7.218;2023-12-20T03:58:08;98832.28;;;10.86;96.64
18275;BME280;19470;49.322;7.218;2023-12-20T04:00:34;98822.00;;;11.23;92.06
18275;BME280;19470;49.322;7.218;2023-12-20T04:03:01;98832.13;;;10.75;96.93
18275;BME280;19470;49.322;7.218;2023-12-20T04:05:29;98837.44;;;11.09;92.46
18275;BME280;19470;49.322;7.218;2023-12-20T04:07:55;98837.44;;;11.09;92.39
18275;BME280;19470;49.322;7.218;2023-12-20T04:10:22;98826.34;;;11.46;91.51
18275;BME280;19470;49.322;7.218;2023-12-20T04:12:48;98823.06;;;11.39;92.05
18275;BME280;19470;49.322;7.218;2023-12-20T04:15:14;98835.66;;;11.32;91.71
18275;BME280;19470;49.322;7.218;2023-12-20T04:17:41;98838.47;;;10.46;100.00
18275;BME280;19470;49.322;7.218;2023-12-20T04:20:08;98831.28;;;11.20;96.37
18275;BME280;19470;49.322;7.218;2023-12-20T04:22:36;98838.78;;;10.95;95.37
18275;BME280;19470;49.322;7.218;2023-12-20T04:25:03;98846.22;;;10.64;98.70
18275;BME280;19470;49.322;7.218;2023-12-20T04:27:29;98838.97;;;11.05;96.02
18275;BME280;19470;49.322;7.218;2023-12-20T04:29:56;98852.94;;;10.55;98.97
18275;BME280;19470;49.322;7.218;2023-12-20T04:32:22;98852.44;;;10.58;97.30
18275;BME280;19470;49.322;7.218;2023-12-20T04:34:49;98861.13;;;10.99;95.97
18275;BME280;19470;49.322;7.218;2023-12-20T04:37:15;98861.50;;;10.74;93.19
18275;BME280;19470;49.322;7.218;2023-12-20T04:39:43;98859.91;;;10.73;95.42
18275;BME280;19470;49.322;7.218;2023-12-20T04:42:10;98860.59;;;10.40;95.66
18275;BME280;19470;49.322;7.218;2023-12-20T04:44:36;98852.75;;;10.73;92.90
18275;BME280;19470;49.322;7.218;2023-12-20T04:47:03;98863.81;;;10.42;94.68
18275;BME280;19470;49.322;7.218;2023-12-20T04:49:30;98865.41;;;10.43;91.98
18275;BME280;19470;49.322;7.218;2023-12-20T04:51:56;98870.59;;;10.49;90.45
18275;BME280;19470;49.322;7.218;2023-12-20T04:54:23;98884.03;;;10.48;91.09
18275;BME280;19470;49.322;7.218;2023-12-20T04:56:50;98897.22;;;10.19;89.03
18275;BME280;19470;49.322;7.218;2023-12-20T04:59:17;98885.97;;;10.53;89.26
18275;BME280;19470;49.322;7.218;2023-12-20T05:01:43;98892.19;;;9.83;92.92
18275;BME280;19470;49.322;7.218;2023-12-20T05:04:12;98887.81;;;10.81;89.00
18275;BME280;19470;49.322;7.218;2023-12-20T05:06:38;98888.66;;;10.98;87.48
18275;BME280;19470;49.322;7.218;2023-12-20T05:09:05;98877.66;;;10.20;89.09
18275;BME280;19470;49.322;7.218;2023-12-20T05:11:31;98893.06;;;10.23;88.15
18275;BME280;19470;49.322;7.218;2023-12-20T05:13:59;98898.06;;;10.60;90.29
18275;BME280;19470;49.322;7.218;2023-12-20T05:16:25;98888.63;;;10.12;90.82
18275;BME280;19470;49.322;7.218;2023-12-20T05:18:52;98892.84;;;10.25;92.64
18275;BME280;19470;49.322;7.218;2023-12-20T05:21:18;98891.78;;;10.38;91.80
18275;BME280;19470;49.322;7.218;2023-12-20T05:23:45;98908.84;;;10.70;88.76
18275;BME280;19470;49.322;7.218;2023-12-20T05:26:11;98919.50;;;10.47;90.42
18275;BME280;19470;49.322;7.218;2023-12-20T05:28:38;98926.91;;;10.45;87.77
18275;BME280;19470;49.322;7.218;2023-12-20T05:31:06;98927.25;;;10.37;87.82
18275;BME280;19470;49.322;7.218;2023-12-20T05:33:33;98932.22;;;9.98;89.71
18275;BME280;19470;49.322;7.218;2023-12-20T05:35:59;98939.34;;;10.09;88.94
18275;BME280;19470;49.322;7.218;2023-12-20T05:38:26;98946.44;;;10.20;86.38
18275;BME280;19470;49.322;7.218;2023-12-20T05:40:52;98944.66;;;9.97;86.37
18275;BME280;19470;49.322;7.218;2023-12-20T05:43:19;98948.69;;;10.35;84.35
18275;BME280;19470;49.322;7.218;2023-12-20T05:45:45;98940.59;;;11.11;81.86
18275;BME280;19470;49.322;7.218;2023-12-20T05:48:13;98943.97;;;10.66;84.42
18275;BME280;19470;49.322;7.218;2023-12-20T05:50:39;98946.38;;;10.96;82.77
18275;BME280;19470;49.322;7.218;2023-12-20T05:53:06;98952.00;;;10.07;87.22
18275;BME280;19470;49.322;7.218;2023-12-20T05:55:33;98952.94;;;10.24;86.55
18275;BME280;19470;49.322;7.218;2023-12-20T05:57:59;98954.06;;;10.05;86.94
18275;BME280;19470;49.322;7.218;2023-12-20T06:00:26;98955.00;;;9.99;86.06
18275;BME280;19470;49.322;7.218;2023-12-20T06:02:52;98950.72;;;10.21;85.58
18275;BME280;19470;49.322;7.218;2023-12-20T06:05:20;98952.81;;;10.71;83.16
18275;BME280;19470;49.322;7.218;2023-12-20T06:07:47;98955.53;;;10.48;84.38
18275;BME280;19470;49.322;7.218;2023-12-20T06:10:16;98953.63;;;10.08;86.00
18275;BME280;19470;49.322;7.218;2023-12-20T06:12:42;98946.25;;;9.87;87.36
18275;BME280;19470;49.322;7.218;2023-12-20T06:15:09;98960.38;;;9.69;89.17
18275;BME280;19470;49.322;7.218;2023-12-20T06:17:36;98954.56;;;10.02;86.25
18275;BME280;19470;49.322;7.218;2023-12-20T06:20:03;98960.75;;;9.96;87.25
18275;BME280;19470;49.322;7.218;2023-12-20T06:22:34;98970.59;;;9.42;87.71
18275;BME280;19470;49.322;7.218;2023-12-20T06:25:00;98968.34;;;10.04;86.20
18275;BME280;19470;49.322;7.218;2023-12-20T06:27:27;98980.06;;;10.08;84.48
18275;BME280;19470;49.322;7.218;2023-12-20T06:29:53;98975.13;;;10.12;85.23
18275;BME280;19470;49.322;7.218;2023-12-20T06:32:20;98964.06;;;10.15;84.61
18275;BME280;19470;49.322;7.218;2023-12-20T06:34:48;98966.50;;;10.16;84.46
18275;BME280;19470;49.322;7.218;2023-12-20T06:37:15;98966.97;;;10.13;83.40
18275;BME280;19470;49.322;7.218;2023-12-20T06:39:43;98977.34;;;9.38;86.91
18275;BME280;19470;49.322;7.218;2023-12-20T06:42:09;98977.09;;;10.16;82.38
18275;BME280;19470;49.322;7.218;2023-12-20T06:44:36;98984.56;;;9.31;86.22
18275;BME280;19470;49.322;7.218;2023-12-20T06:47:03;98973.97;;;9.84;82.34
18275;BME280;19470;49.322;7.218;2023-12-20T06:49:29;98982.16;;;9.94;83.78
18275;BME280;19470;49.322;7.218;2023-12-20T06:51:56;98979.59;;;10.23;81.73
18275;BME280;19470;49.322;7.218;2023-12-20T06:54:22;98968.44;;;9.51;86.60
18275;BME280;19470;49.322;7.218;2023-12-20T06:56:50;98966.41;;;9.23;86.67
18275;BME280;19470;49.322;7.218;2023-12-20T06:59:16;98971.69;;;9.99;83.46
18275;BME280;19470;49.322;7.218;2023-12-20T07:01:47;98970.66;;;9.89;83.38
18275;BME280;19470;49.322;7.218;2023-12-20T07:04:14;98976.84;;;9.83;82.19
18275;BME280;19470;49.322;7.218;2023-12-20T07:06:40;98969.47;;;9.61;84.29
18275;BME280;19470;49.322;7.218;2023-12-20T07:09:07;98977.28;;;9.68;83.64
18275;BME280;19470;49.322;7.218;2023-12-20T07:11:33;98988.56;;;9.87;84.82
18275;BME280;19470;49.322;7.218;2023-12-20T07:14:01;98996.63;;;9.92;83.91
18275;BME280;19470;49.322;7.218;2023-12-20T07:16:27;98989.97;;;10.01;84.21
18275;BME280;19470;49.322;7.218;2023-12-20T07:18:54;98987.19;;;9.96;83.00
18275;BME280;19470;49.322;7.218;2023-12-20T07:21:22;98993.97;;;9.92;84.54
18275;BME280;19470;49.322;7.218;2023-12-20T07:23:48;98984.56;;;9.96;84.15
18275;BME280;19470;49.322;7.218;2023-12-20T07:26:15;98987.09;;;10.38;82.15
18275;BME280;19470;49.322;7.218;2023-12-20T07:28:41;98992.34;;;9.67;85.61
18275;BME280;19470;49.322;7.218;2023-12-20T07:31:09;99001.13;;;10.15;83.19
18275;BME280;19470;49.322;7.218;2023-12-20T07:33:36;99008.09;;;9.62;86.57
18275;BME280;19470;49.322;7.218;2023-12-20T07:36:03;99007.59;;;10.42;82.30
18275;BME280;19470;49.322;7.218;2023-12-20T07:38:29;99009.97;;;9.97;83.28
18275;BME280;19470;49.322;7.218;2023-12-20T07:40:56;99008.56;;;9.83;86.66
18275;BME280;19470;49.322;7.218;2023-12-20T07:43:22;99012.03;;;9.71;85.49
18275;BME280;19470;49.322;7.218;2023-12-20T07:45:49;99006.94;;;9.58;87.74
18275;BME280;19470;49.322;7.218;2023-12-20T07:48:16;99013.22;;;9.99;86.88
18275;BME280;19470;49.322;7.218;2023-12-20T07:50:43;99023.59;;;9.47;88.53
18275;BME280;19470;49.322;7.218;2023-12-20T07:53:10;99021.88;;;9.64;87.26
18275;BME280;19470;49.322;7.218;2023-12-20T07:55:36;99023.97;;;9.62;86.90
18275;BME280;19470;49.322;7.218;2023-12-20T07:58:03;99028.75;;;10.19;84.11
18275;BME280;19470;49.322;7.218;2023-12-20T08:00:30;99036.81;;;9.47;89.15
18275;BME280;19470;49.322;7.218;2023-12-20T08:02:56;99038.53;;;10.30;85.25
18275;BME280;19470;49.322;7.218;2023-12-20T08:05:24;99047.28;;;9.54;86.95
18275;BME280;19470;49.322;7.218;2023-12-20T08:07:51;99046.34;;;10.13;87.03
18275;BME280;19470;49.322;7.218;2023-12-20T08:10:23;99046.72;;;10.29;86.36
18275;BME280;19470;49.322;7.218;2023-12-20T08:12:50;99057.16;;;9.58;89.12
18275;BME280;19470;49.322;7.218;2023-12-20T08:15:17;99046.53;;;9.77;88.04
18275;BME280;19470;49.322;7.218;2023-12-20T08:17:43;99052.00;;;10.17;86.79
18275;BME280;19470;49.322;7.218;2023-12-20T08:20:10;99056.63;;;10.33;85.03
18275;BME280;19470;49.322;7.218;2023-12-20T08:22:38;99065.53;;;9.97;86.17
18275;BME280;19470;49.322;7.218;2023-12-20T08:25:05;99073.88;;;9.70;88.65
18275;BME280;19470;49.322;7.218;2023-12-20T08:27:32;99063.38;;;9.52;88.28
18275;BME280;19470;49.322;7.218;2023-12-20T08:29:59;99068.81;;;10.34;83.94
18275;BME280;19470;49.322;7.218;2023-12-20T08:32:25;99066.56;;;9.96;87.04
18275;BME280;19470;49.322;7.218;2023-12-20T08:34:52;99069.75;;;9.75;88.50
18275;BME280;19470;49.322;7.218;2023-12-20T08:37:18;99054.09;;;10.50;83.21
18275;BME280;19470;49.322;7.218;2023-12-20T08:39:46;99050.00;;;9.89;87.23
18275;BME280;19470;49.322;7.218;2023-12-20T08:42:13;99051.50;;;9.96;85.23
18275;BME280;19470;49.322;7.218;2023-12-20T08:44:39;99052.31;;;9.97;88.43
18275;BME280;19470;49.322;7.218;2023-12-20T08:47:05;99050.94;;;10.06;86.88
18275;BME280;19470;49.322;7.218;2023-12-20T08:49:32;99050.50;;;11.08;82.76
18275;BME280;19470;49.322;7.218;2023-12-20T08:51:59;99043.31;;;10.92;82.87
18275;BME280;19470;49.322;7.218;2023-12-20T08:54:25;99036.97;;;10.93;82.93
18275;BME280;19470;49.322;7.218;2023-12-20T08:56:53;99030.03;;;11.04;82.67
18275;BME280;19470;49.322;7.218;2023-12-20T08:59:19;99043.28;;;10.40;83.34
18275;BME280;19470;49.322;7.218;2023-12-20T09:01:46;99046.97;;;9.73;87.46
18275;BME280;19470;49.322;7.218;2023-12-20T09:04:13;99050.88;;;9.71;90.07
18275;BME280;19470;49.322;7.218;2023-12-20T09:06:40;99059.81;;;10.23;88.23
18275;BME280;19470;49.322;7.218;2023-12-20T09:09:06;99060.06;;;11.09;82.34
18275;BME280;19470;49.322;7.218;2023-12-20T09:11:35;99052.25;;;10.27;88.69
18275;BME280;19470;49.322;7.218;2023-12-20T09:14:03;99060.00;;;10.92;82.44
18275;BME280;19470;49.322;7.218;2023-12-20T09:16:29;99060.84;;;9.99;86.95
18275;BME280;19470;49.322;7.218;2023-12-20T09:18:56;99066.25;;;10.16;86.32
18275;BME280;19470;49.322;7.218;2023-12-20T09:21:23;99054.97;;;10.20;86.01
18275;BME280;19470;49.322;7.218;2023-12-20T09:23:50;99063.56;;;10.98;82.48
18275;BME280;19470;49.322;7.218;2023-12-20T09:26:16;99067.56;;;11.00;81.14
18275;BME280;19470;49.322;7.218;2023-12-20T09:28:43;99069.06;;;10.44;83.14
18275;BME280;19470;49.322;7.218;2023-12-20T09:31:11;99061.09;;;10.56;85.53
18275;BME280;19470;49.322;7.218;2023-12-20T09:33:37;99054.34;;;11.29;80.46
18275;BME280;19470;49.322;7.218;2023-12-20T09:36:05;99057.94;;;10.01;86.66
18275;BME280;19470;49.322;7.218;2023-12-20T09:38:31;99052.81;;;10.17;86.71
18275;BME280;19470;49.322;7.218;2023-12-20T09:40:58;99063.25;;;10.83;83.83
18275;BME280;19470;49.322;7.218;2023-12-20T09:43:26;99062.72;;;10.57;83.70
18275;BME280;19470;49.322;7.218;2023-12-20T09:45:58;99065.88;;;11.06;81.76
18275;BME280;19470;49.322;7.218;2023-12-20T09:48:29;99063.72;;;9.97;88.06
18275;BME280;19470;49.322;7.218;2023-12-20T09:50:56;99074.09;;;10.34;86.06
18275;BME280;19470;49.322;7.218;2023-12-20T09:53:24;99075.22;;;10.85;82.91
18275;BME280;19470;49.322;7.218;2023-12-20T09:55:55;99080.28;;;10.87;83.58
18275;BME280;19470;49.322;7.218;2023-12-20T09:58:24;99070.00;;;9.85;89.98
18275;BME280;19470;49.322;7.218;2023-12-20T10:00:51;99080.34;;;9.75;90.89
18275;BME280;19470;49.322;7.218;2023-12-20T10:03:24;99078.50;;;9.87;87.89
18275;BME280;19470;49.322;7.218;2023-12-20T10:05:54;99084.81;;;10.28;89.10
18275;BME280;19470;49.322;7.218;2023-12-20T10:08:22;99074.56;;;10.78;84.80
18275;BME280;19470;49.322;7.218;2023-12-20T10:10:51;99070.09;;;10.55;84.17
18275;BME280;19470;49.322;7.218;2023-12-20T10:13:18;99068.94;;;10.28;86.30
18275;BME280;19470;49.322;7.218;2023-12-20T10:15:44;99056.34;;;10.11;87.02
18275;BME280;19470;49.322;7.218;2023-12-20T10:18:12;99056.75;;;10.27;86.06
18275;BME280;19470;49.322;7.218;2023-12-20T10:20:40;99055.34;;;10.12;87.11
18275;BME280;19470;49.322;7.218;2023-12-20T10:23:08;99054.19;;;10.55;85.55
18275;BME280;19470;49.322;7.218;2023-12-20T10:25:35;99054.34;;;9.83;85.34
18275;BME280;19470;49.322;7.218;2023-12-20T10:28:12;99060.56;;;10.31;83.92
18275;BME280;19470;49.322;7.218;2023-12-20T10:30:40;99071.28;;;9.94;85.88
18275;BME280;19470;49.322;7.218;2023-12-20T10:33:07;99051.66;;;10.13;84.68
18275;BME280;19470;49.322;7.218;2023-12-20T10:35:34;99030.03;;;10.16;86.51
18275;BME280;19470;49.322;7.218;2023-12-20T10:38:03;99058.00;;;10.59;81.53
18275;BME280;19470;49.322;7.218;2023-12-20T10:40:34;99040.66;;;10.92;83.65
18275;BME280;19470;49.322;7.218;2023-12-20T10:43:02;99026.00;;;11.01;82.16
18275;BME280;19470;49.322;7.218;2023-12-20T10:45:28;99022.44;;;10.32;84.45
18275;BME280;19470;49.322;7.218;2023-12-20T10:47:56;99019.66;;;10.50;83.63
18275;BME280;19470;49.322;7.218;2023-12-20T10:50:22;99027.38;;;11.32;80.35
18275;BME280;19470;49.322;7.218;2023-12-20T10:52:50;99023.44;;;10.66;82.62
18275;BME280;19470;49.322;7.218;2023-12-20T10:55:20;99020.94;;;10.24;83.36
18275;BME280;19470;49.322;7.218;2023-12-20T10:57:49;99018.06;;;11.01;81.94
18275;BME280;19470;49.322;7.218;2023-12-20T11:00:17;99010.75;;;11.08;81.33
18275;BME280;19470;49.322;7.218;2023-12-20T11:02:44;99018.72;;;10.56;82.52
18275;BME280;19470;49.322;7.218;2023-12-20T11:05:21;99018.22;;;10.83;83.28
18275;BME280;19470;49.322;7.218;2023-12-20T11:07:53;99019.38;;;10.75;82.84
18275;BME280;19470;49.322;7.218;2023-12-20T11:10:26;99016.69;;;10.87;81.15
18275;BME280;19470;49.322;7.218;2023-12-20T11:13:05;99017.38;;;11.22;81.01
18275;BME280;19470;49.322;7.218;2023-12-20T11:15:35;99017.84;;;10.91;81.15
18275;BME280;19470;49.322;7.218;2023-12-20T11:18:02;99013.47;;;10.85;82.10
18275;BME280;19470;49.322;7.218;2023-12-20T11:20:36;99004.41;;;11.09;81.02
18275;BME280;19470;49.322;7.218;2023-12-20T11:23:03;99013.16;;;11.10;81.51
18275;BME280;19470;49.322;7.218;2023-12-20T11:25:52;99004.94;;;10.94;80.54
18275;BME280;19470;49.322;7.218;2023-12-20T11:28:21;99011.22;;;10.65;80.78
18275;BME280;19470;49.322;7.218;2023-12-20T11:30:50;99013.84;;;10.77;79.21
18275;BME280;19470;49.322;7.218;2023-12-20T11:33:21;99010.66;;;11.03;79.34
18275;BME280;19470;49.322;7.218;2023-12-20T11:35:48;99015.72;;;10.64;80.33
18275;BME280;19470;49.322;7.218;2023-12-20T11:38:14;99019.53;;;10.57;82.52
18275;BME280;19470;49.322;7.218;2023-12-20T11:40:42;99024.28;;;10.55;81.43
18275;BME280;19470;49.322;7.218;2023-12-20T11:43:10;99023.13;;;11.03;79.26
18275;BME280;19470;49.322;7.218;2023-12-20T11:45:37;99017.94;;;11.53;77.49
18275;BME280;19470;49.322;7.218;2023-12-20T11:48:04;99021.28;;;10.91;80.24
18275;BME280;19470;49.322;7.218;2023-12-20T11:50:32;99015.50;;;11.97;76.25
18275;BME280;19470;49.322;7.218;2023-12-20T11:52:58;99017.75;;;10.86;79.31
18275;BME280;19470;49.322;7.218;2023-12-20T11:55:25;99017.16;;;10.32;80.97
18275;BME280;19470;49.322;7.218;2023-12-20T11:57:52;99013.63;;;10.78;79.73
18275;BME280;19470;49.322;7.218;2023-12-20T12:00:20;99004.59;;;10.91;79.99
18275;BME280;19470;49.322;7.218;2023-12-20T12:02:59;99001.59;;;10.23;82.15
18275;BME280;19470;49.322;7.218;2023-12-20T12:05:28;98998.31;;;11.09;77.70
18275;BME280;19470;49.322;7.218;2023-12-20T12:07:54;99002.97;;;11.02;77.90
18275;BME280;19470;49.322;7.218;2023-12-20T12:10:21;98997.16;;;11.05;77.85
18275;BME280;19470;49.322;7.218;2023-12-20T12:12:48;99006.63;;;10.60;77.92
18275;BME280;19470;49.322;7.218;2023-12-20T12:15:14;99008.53;;;10.88;79.98
18275;BME280;19470;49.322;7.218;2023-12-20T12:17:42;99018.69;;;10.80;79.80
18275;BME280;19470;49.322;7.218;2023-12-20T12:20:09;99001.03;;;10.45;79.50
18275;BME280;19470;49.322;7.218;2023-12-20T12:22:36;99010.81;;;11.25;76.54
18275;BME280;19470;49.322;7.218;2023-12-20T12:25:10;99015.75;;;10.53;80.48
18275;BME280;19470;49.322;7.218;2023-12-20T12:27:38;99019.75;;;11.36;77.73
18275;BME280;19470;49.322;7.218;2023-12-20T12:30:06;99010.41;;;11.05;77.33
18275;BME280;19470;49.322;7.218;2023-12-20T12:32:33;99016.16;;;11.13;79.08
18275;BME280;19470;49.322;7.218;2023-12-20T12:35:02;99023.97;;;11.20;76.79
18275;BME280;19470;49.322;7.218;2023-12-20T12:37:29;99026.38;;;10.81;79.59
18275;BME280;19470;49.322;7.218;2023-12-20T12:39:56;99012.69;;;11.13;77.14
18275;BME280;19470;49.322;7.218;2023-12-20T12:42:23;99019.69;;;10.90;78.85
18275;BME280;19470;49.322;7.218;2023-12-20T12:44:53;99008.28;;;10.49;81.77
18275;BME280;19470;49.322;7.218;2023-12-20T12:47:20;99015.50;;;10.66;79.50
18275;BME280;19470;49.322;7.218;2023-12-20T12:49:47;99001.47;;;10.94;79.92
18275;BME280;19470;49.322;7.218;2023-12-20T12:52:15;99003.66;;;10.97;77.55
18275;BME280;19470;49.322;7.218;2023-12-20T12:54:41;98996.53;;;10.86;78.24
18275;BME280;19470;49.322;7.218;2023-12-20T12:57:07;98994.59;;;10.41;82.24
18275;BME280;19470;49.322;7.218;2023-12-20T12:59:34;98990.97;;;10.99;80.54
18275;BME280;19470;49.322;7.218;2023-12-20T13:02:01;98995.28;;;10.88;79.41